Time;durP1;ratioP1;P1;durP2;ratioP2;P2;SDS_P1;SDS_P2;PMS_P1;PMS_P2;Temp;Humidity;BMP_temperature;BMP_pressure;BME280_temperature;BME280_humidity;BME280_pressure;Samples;Min_cycle;Max_cycle;Signal;HPM_P1;HPM_P2
2023/10/28 00:00:29;;;;;;;18.20;4.80;;;;;;;8.43;100.00;99088.44;10461240;28;20556;-79
2023/10/28 00:05:30;;;;;;;15.35;6.20;;;;;;;8.42;100.00;99087.53;10462021;28;20139;-79
2023/10/28 00:10:32;;;;;;;11.02;3.42;;;;;;;8.40;100.00;99081.38;10459986;28;20122;-77
2023/10/28 00:15:33;;;;;;;12.70;3.78;;;;;;;8.36;100.00;99083.03;10469841;28;20040;-77
2023/10/28 00:20:34;;;;;;;5.55;2.45;;;;;;;8.33;100.00;99087.28;10460981;28;20036;-78
2023/10/28 00:25:35;;;;;;;12.57;2.35;;;;;;;8.27;100.00;99087.09;10456914;28;20049;-78
2023/10/28 00:30:39;;;;;;;5.00;2.30;;;;;;;8.23;100.00;99087.00;10469422;28;20039;-79
2023/10/28 00:35:42;;;;;;;5.72;2.45;;;;;;;8.17;100.00;99081.63;10446863;28;20041;-79
2023/10/28 00:40:42;;;;;;;4.57;1.33;;;;;;;8.14;100.00;99091.09;10436263;28;20033;-79
2023/10/28 00:45:43;;;;;;;8.45;3.28;;;;;;;8.13;100.00;99087.59;10473220;28;20110;-78
2023/10/28 00:50:44;;;;;;;19.02;4.25;;;;;;;8.11;100.00;99088.41;10461600;28;20043;-79
2023/10/28 00:55:45;;;;;;;5.90;1.77;;;;;;;8.13;100.00;99086.72;10459665;28;20124;-79
2023/10/28 01:00:45;;;;;;;10.25;2.00;;;;;;;8.15;100.00;99090.25;10457356;28;20040;-79
2023/10/28 01:05:46;;;;;;;2.72;1.40;;;;;;;8.16;100.00;99090.28;10467601;28;20445;-79
2023/10/28 01:10:46;;;;;;;6.72;1.58;;;;;;;8.11;100.00;99086.66;10469179;28;20534;-79
2023/10/28 01:15:47;;;;;;;4.90;2.00;;;;;;;8.11;100.00;99096.22;10456259;28;20179;-79
2023/10/28 01:20:47;;;;;;;9.95;2.15;;;;;;;8.11;100.00;99096.22;10448108;28;20123;-79
2023/10/28 01:25:48;;;;;;;11.77;2.00;;;;;;;8.07;100.00;99097.84;10459120;28;20139;-79
2023/10/28 01:30:48;;;;;;;6.75;3.08;;;;;;;8.09;100.00;99096.16;10453726;28;20460;-78
2023/10/28 01:35:49;;;;;;;5.20;1.80;;;;;;;8.14;100.00;99099.78;10459051;28;20132;-77
2023/10/28 01:40:51;;;;;;;4.93;1.80;;;;;;;8.18;100.00;99105.97;10472691;28;20119;-78
2023/10/28 01:45:51;;;;;;;6.57;2.22;;;;;;;8.17;100.00;99107.69;10453760;28;20071;-78
2023/10/28 01:50:52;;;;;;;6.63;1.95;;;;;;;8.18;100.00;99116.41;10469275;28;20127;-79
2023/10/28 01:55:52;;;;;;;5.18;1.95;;;;;;;8.21;100.00;99111.28;10462683;28;20162;-81
2023/10/28 02:00:53;;;;;;;6.63;2.78;;;;;;;8.19;100.00;99128.59;10476674;28;20036;-78
2023/10/28 02:05:53;;;;;;;5.05;1.67;;;;;;;8.21;100.00;99132.13;10462250;28;20457;-77
2023/10/28 02:10:54;;;;;;;8.40;2.83;;;;;;;8.25;100.00;99123.56;10450013;28;20051;-78
2023/10/28 02:15:54;;;;;;;3.55;1.73;;;;;;;8.28;100.00;99122.75;10461821;28;20556;-78
2023/10/28 02:20:55;;;;;;;6.78;2.58;;;;;;;8.30;100.00;99119.38;10442595;28;20120;-78
2023/10/28 02:25:55;;;;;;;6.45;2.13;;;;;;;8.28;100.00;99112.31;10464370;28;20178;-79
2023/10/28 02:30:56;;;;;;;6.00;3.33;;;;;;;8.19;100.00;99110.34;10464138;28;20132;-78
2023/10/28 02:35:57;;;;;;;7.90;1.58;;;;;;;8.20;100.00;99112.13;10463002;28;20115;-78
2023/10/28 02:40:58;;;;;;;9.00;3.42;;;;;;;8.19;100.00;99106.00;10459369;28;20076;-78
2023/10/28 02:45:59;;;;;;;4.03;1.70;;;;;;;8.16;100.00;99108.53;10447870;28;20048;-79
2023/10/28 02:51:04;;;;;;;6.50;2.55;;;;;;;8.17;100.00;99107.69;10471373;28;20037;-77
2023/10/28 02:56:05;;;;;;;3.63;1.95;;;;;;;8.13;100.00;99100.63;10463725;28;20049;-78
2023/10/28 03:01:09;;;;;;;4.28;2.10;;;;;;;8.15;100.00;99109.38;10465171;28;20036;-78
2023/10/28 03:06:10;;;;;;;7.57;1.80;;;;;;;8.05;100.00;99107.31;10467692;28;20059;-79
2023/10/28 03:11:11;;;;;;;8.73;4.07;;;;;;;7.96;100.00;99110.56;10469207;28;20043;-78
2023/10/28 03:16:11;;;;;;;7.10;2.85;;;;;;;7.91;100.00;99110.41;10468360;28;20112;-79
2023/10/28 03:21:12;;;;;;;9.38;2.80;;;;;;;7.82;100.00;99102.31;10463854;28;20391;-78
2023/10/28 03:26:13;;;;;;;6.35;2.78;;;;;;;7.74;100.00;99107.31;10469755;28;20128;-79
2023/10/28 03:31:14;;;;;;;12.25;3.55;;;;;;;7.63;100.00;99106.94;10449292;28;20075;-78
2023/10/28 03:36:15;;;;;;;6.80;2.70;;;;;;;7.50;100.00;99107.41;10460624;28;20048;-77
2023/10/28 03:41:16;;;;;;;5.68;3.25;;;;;;;7.52;100.00;99107.47;10477428;28;20536;-78
2023/10/28 03:46:18;;;;;;;5.47;3.03;;;;;;;7.53;100.00;99109.25;10462150;28;20057;-78
2023/10/28 03:51:18;;;;;;;10.48;3.35;;;;;;;7.58;100.00;99105.06;10483206;28;20433;-78
2023/10/28 03:56:19;;;;;;;7.70;3.33;;;;;;;7.61;100.00;99099.94;10453064;28;20033;-77
2023/10/28 04:01:19;;;;;;;8.15;3.00;;;;;;;7.60;100.00;99106.84;10447792;28;20150;-77
2023/10/28 04:06:20;;;;;;;11.65;3.13;;;;;;;7.56;100.00;99104.13;10467363;28;20075;-77
2023/10/28 04:11:21;;;;;;;8.90;3.60;;;;;;;7.61;100.00;99090.41;10477039;28;20042;-77
2023/10/28 04:16:21;;;;;;;8.52;3.63;;;;;;;7.60;100.00;99092.97;10458550;28;20047;-78
2023/10/28 04:21:22;;;;;;;5.55;2.38;;;;;;;7.60;100.00;99085.16;10439454;28;20124;-78
2023/10/28 04:26:22;;;;;;;7.05;3.17;;;;;;;7.61;100.00;99085.19;10449248;28;20435;-79
2023/10/28 04:31:23;;;;;;;8.45;3.15;;;;;;;7.51;100.00;99088.34;10462904;28;20036;-78
2023/10/28 04:36:25;;;;;;;9.52;2.97;;;;;;;7.59;100.00;99084.25;10464681;28;20127;-78
2023/10/28 04:41:25;;;;;;;7.32;3.38;;;;;;;7.61;100.00;99080.00;10468324;28;20441;-78
2023/10/28 04:46:26;;;;;;;7.13;3.50;;;;;;;7.62;100.00;99080.88;10433275;28;20119;-80
2023/10/28 04:51:26;;;;;;;5.88;2.47;;;;;;;7.55;100.00;99068.50;10454922;28;20041;-81
2023/10/28 04:56:27;;;;;;;8.15;3.33;;;;;;;7.53;100.00;99073.66;10450120;28;20135;-81
2023/10/28 05:01:29;;;;;;;6.32;2.35;;;;;;;7.55;100.00;99066.78;10450155;28;20120;-81
2023/10/28 05:06:30;;;;;;;8.23;3.42;;;;;;;7.53;100.00;99071.06;10466361;28;20493;-78
2023/10/28 05:11:30;;;;;;;7.68;3.20;;;;;;;7.62;100.00;99062.66;10449787;28;20164;-77
2023/10/28 05:16:31;;;;;;;7.15;3.38;;;;;;;7.63;100.00;99057.47;10450749;28;20431;-77
2023/10/28 05:21:31;;;;;;;8.65;3.22;;;;;;;7.67;100.00;99061.06;10477880;28;20123;-80
2023/10/28 05:26:32;;;;;;;5.53;2.92;;;;;;;7.77;100.00;99064.81;10459206;28;20064;-78
2023/10/28 05:31:32;;;;;;;8.35;2.85;;;;;;;7.85;100.00;99065.06;10469311;28;20092;-77
2023/10/28 05:36:33;;;;;;;6.78;2.85;;;;;;;7.89;100.00;99062.59;10457620;28;20123;-77
2023/10/28 05:41:33;;;;;;;6.78;3.15;;;;;;;7.91;100.00;99068.72;10476318;28;20064;-79
2023/10/28 05:46:34;;;;;;;8.23;3.08;;;;;;;7.98;100.00;99079.31;10478584;28;20428;-76
2023/10/28 05:51:36;;;;;;;7.68;2.63;;;;;;;8.10;100.00;99076.22;10448541;28;20055;-77
2023/10/28 05:56:37;;;;;;;9.80;2.13;;;;;;;8.18;100.00;99088.59;10446052;28;20128;-76
2023/10/28 06:01:37;;;;;;;11.88;2.42;;;;;;;8.20;100.00;99089.53;10461074;28;20045;-77
2023/10/28 06:06:38;;;;;;;10.02;3.55;;;;;;;8.17;100.00;99086.84;10467376;28;20071;-77
2023/10/28 06:11:38;;;;;;;12.77;2.55;;;;;;;8.16;100.00;99084.19;10463798;28;20535;-77
2023/10/28 06:16:39;;;;;;;6.40;2.90;;;;;;;8.18;100.00;99088.59;10452607;28;20071;-80
2023/10/28 06:21:39;;;;;;;5.10;2.53;;;;;;;8.22;100.00;99084.38;10461626;28;20040;-77
2023/10/28 06:26:40;;;;;;;7.15;1.90;;;;;;;8.26;100.00;99085.34;10474374;28;20127;-76
2023/10/28 06:31:40;;;;;;;6.75;2.20;;;;;;;8.32;100.00;99085.50;10461412;28;20484;-77
2023/10/28 06:36:41;;;;;;;7.18;3.25;;;;;;;8.35;100.00;99090.81;10440626;28;20120;-77
2023/10/28 06:41:41;;;;;;;5.95;1.98;;;;;;;8.47;100.00;99091.16;10463868;28;20411;-77
2023/10/28 06:46:42;;;;;;;5.22;1.95;;;;;;;8.56;100.00;99090.56;10467577;28;20040;-77
2023/10/28 06:51:43;;;;;;;5.43;3.90;;;;;;;8.56;100.00;99095.78;10444396;28;20123;-77
2023/10/28 06:56:44;;;;;;;5.18;3.08;;;;;;;8.66;100.00;99104.72;10438024;28;20044;-79
2023/10/28 07:01:45;;;;;;;7.07;2.13;;;;;;;8.90;100.00;99094.06;10443745;28;20144;-78
2023/10/28 07:06:45;;;;;;;6.18;2.40;;;;;;;9.06;100.00;99095.31;10473437;28;20432;-77
2023/10/28 07:11:46;;;;;;;10.18;4.75;;;;;;;9.18;100.00;99094.78;10475132;28;20040;-81
2023/10/28 07:16:47;;;;;;;5.55;1.98;;;;;;;9.35;100.00;99095.16;10466436;28;20052;-80
2023/10/28 07:21:48;;;;;;;4.40;1.70;;;;;;;9.51;100.00;99105.97;10467222;28;20040;-79
2023/10/28 07:26:51;;;;;;;5.45;1.40;;;;;;;9.69;100.00;99103.78;10465799;28;20478;-84
2023/10/28 07:31:51;;;;;;;6.07;1.70;;;;;;;9.93;100.00;99118.25;10460301;28;20045;-84
2023/10/28 07:36:52;;;;;;;5.93;2.15;;;;;;;10.18;100.00;99110.94;10467429;28;20079;-84
2023/10/28 07:41:56;;;;;;;11.50;2.20;;;;;;;10.18;100.00;99125.75;10431955;28;20090;-85
2023/10/28 07:46:56;;;;;;;7.38;4.13;;;;;;;10.11;100.00;99109.94;10443466;28;20056;-85
2023/10/28 07:51:57;;;;;;;4.88;1.98;;;;;;;10.02;100.00;99108.84;10442414;28;20068;-85
2023/10/28 07:56:58;;;;;;;4.25;3.15;;;;;;;10.03;100.00;99095.84;10450390;28;20053;-84
2023/10/28 08:02:00;;;;;;;5.60;3.00;;;;;;;10.11;100.00;99096.88;10453824;28;20037;-85
2023/10/28 08:07:00;;;;;;;6.40;2.67;;;;;;;10.28;100.00;99091.97;10453707;28;20101;-85
2023/10/28 08:12:03;;;;;;;8.23;2.15;;;;;;;10.29;100.00;99090.28;10451622;28;20048;-85
2023/10/28 08:17:05;;;;;;;7.05;2.10;;;;;;;10.41;100.00;99089.66;10459761;28;20767;-85
2023/10/28 08:22:05;;;;;;;4.53;2.07;;;;;;;10.57;100.00;99096.94;10475170;28;20036;-86
2023/10/28 08:27:06;;;;;;;6.65;1.65;;;;;;;10.71;100.00;99107.69;10462138;28;20362;-84
2023/10/28 08:32:06;;;;;;;6.82;1.52;;;;;;;10.76;100.00;99096.44;10465739;28;20420;-85
2023/10/28 08:37:07;;;;;;;3.08;0.93;;;;;;;10.99;100.00;99100.34;10438283;28;20127;-84
2023/10/28 08:42:08;;;;;;;10.52;4.35;;;;;;;11.09;100.00;99085.66;10454027;28;20060;-86
2023/10/28 08:47:09;;;;;;;5.70;1.95;;;;;;;11.43;100.00;99085.34;10451141;28;20068;-84
2023/10/28 08:52:09;;;;;;;5.30;1.45;;;;;;;11.68;100.00;99081.34;10457339;28;20044;-81
2023/10/28 08:57:10;;;;;;;8.38;2.97;;;;;;;11.63;100.00;99085.63;10446351;28;20499;-82
2023/10/28 09:02:11;;;;;;;5.07;1.65;;;;;;;11.33;100.00;99100.00;10443615;28;20055;-81
2023/10/28 09:07:11;;;;;;;7.75;3.17;;;;;;;10.99;100.00;99117.75;10459940;28;20045;-81
2023/10/28 09:12:12;;;;;;;5.28;1.13;;;;;;;10.96;100.00;99129.06;10468378;28;20033;-81
2023/10/28 09:17:14;;;;;;;8.32;1.52;;;;;;;11.21;100.00;99129.50;10454572;28;20062;-80
2023/10/28 09:22:15;;;;;;;11.77;2.58;;;;;;;11.51;100.00;99125.63;10458848;28;20044;-81
2023/10/28 09:27:15;;;;;;;4.82;1.35;;;;;;;12.36;100.00;99109.34;10451069;28;20039;-81
2023/10/28 09:32:18;;;;;;;5.25;1.40;;;;;;;12.47;100.00;99105.09;10424350;28;20041;-80
2023/10/28 09:37:18;;;;;;;6.22;2.17;;;;;;;12.45;100.00;99106.81;10433895;28;20029;-81
2023/10/28 09:42:21;;;;;;;8.27;1.50;;;;;;;12.20;100.00;99117.03;10444253;28;20052;-81
2023/10/28 09:47:22;;;;;;;7.60;2.85;;;;;;;12.01;100.00;99124.63;10456833;28;20145;-83
2023/10/28 09:52:23;;;;;;;2.92;1.00;;;;;;;11.74;100.00;99127.72;10448396;28;20051;-83
2023/10/28 09:57:24;;;;;;;8.38;1.48;;;;;;;11.58;100.00;99127.50;10421821;28;20117;-85
2023/10/28 10:03:03;;;;;;;5.18;1.20;;;;;;;13.30;100.00;99127.81;10442100;28;20037;-81
2023/10/28 10:08:03;;;;;;;6.68;3.15;;;;;;;15.99;100.00;99133.19;10467269;28;20051;-81
2023/10/28 10:13:04;;;;;;;4.60;1.40;;;;;;;15.91;100.00;99144.63;10454118;28;20404;-81
2023/10/28 10:18:10;;;;;;;5.05;1.40;;;;;;;16.34;100.00;99154.19;10472307;28;20060;-81
2023/10/28 10:23:11;;;;;;;4.93;1.30;;;;;;;15.47;100.00;99157.81;10419968;28;20060;-81
2023/10/28 10:28:23;;;;;;;5.95;2.00;;;;;;;15.66;100.00;99169.25;10461162;28;20147;-80
2023/10/28 10:33:27;;;;;;;4.43;1.38;;;;;;;14.46;100.00;99162.81;10448446;28;20037;-80
2023/10/28 10:38:30;;;;;;;4.90;1.65;;;;;;;14.27;100.00;99150.44;10433435;28;21255;-81
2023/10/28 10:43:31;;;;;;;4.22;1.38;;;;;;;15.37;100.00;99172.75;10443652;28;20048;-83
2023/10/28 10:48:33;;;;;;;9.23;3.60;;;;;;;16.91;100.00;99183.00;10464684;28;20036;-82
2023/10/28 10:53:43;;;;;;;12.02;3.10;;;;;;;17.18;100.00;99223.41;10472228;28;20064;-82
2023/10/28 10:58:44;;;;;;;6.07;2.22;;;;;;;17.75;100.00;99238.91;10451425;28;20106;-79
2023/10/28 11:03:44;;;;;;;9.93;2.67;;;;;;;18.52;100.00;99265.59;10469634;28;20127;-81
2023/10/28 11:08:45;;;;;;;11.48;2.38;;;;;;;18.39;100.00;99271.94;10455989;28;20119;-81
2023/10/28 11:13:46;;;;;;;7.55;2.38;;;;;;;16.49;100.00;99275.63;10462220;28;20413;-80
2023/10/28 11:18:46;;;;;;;16.13;3.15;;;;;;;16.07;100.00;99229.91;10450697;28;20045;-81
2023/10/28 11:23:47;;;;;;;6.53;2.20;;;;;;;16.05;100.00;99243.09;10468178;28;20071;-80
2023/10/28 11:28:47;;;;;;;9.18;2.80;;;;;;;15.16;100.00;99244.72;10461222;28;20043;-81
2023/10/28 11:33:48;;;;;;;7.90;2.20;;;;;;;13.72;100.00;99223.69;10447943;28;20044;-81
2023/10/28 11:38:49;;;;;;;9.82;4.57;;;;;;;13.10;100.00;99211.69;10446363;28;20481;-83
2023/10/28 11:43:50;;;;;;;16.23;4.75;;;;;;;13.36;100.00;99217.22;10447730;28;20036;-82
2023/10/28 11:48:50;;;;;;;10.40;3.05;;;;;;;13.68;100.00;99210.53;10446335;28;20049;-82
2023/10/28 11:53:51;;;;;;;9.75;2.80;;;;;;;13.84;100.00;99211.53;10443086;28;20476;-83
2023/10/28 11:58:52;;;;;;;12.00;4.47;;;;;;;15.46;100.00;99236.91;10468064;28;20477;-84
2023/10/28 12:03:52;;;;;;;13.65;3.08;;;;;;;17.55;100.00;99275.22;10472220;28;20515;-82
2023/10/28 12:08:53;;;;;;;10.77;3.08;;;;;;;18.65;100.00;99287.53;10452075;28;20166;-81
2023/10/28 12:13:56;;;;;;;10.65;2.95;;;;;;;18.61;100.00;99312.31;10432989;28;20170;-82
2023/10/28 12:18:57;;;;;;;11.55;2.92;;;;;;;18.40;100.00;99308.97;10455619;28;20145;-83
2023/10/28 12:23:58;;;;;;;18.08;5.13;;;;;;;16.78;100.00;99292.25;10455754;28;20055;-84
2023/10/28 12:28:58;;;;;;;12.95;3.15;;;;;;;15.20;100.00;99279.88;10449330;28;20044;-84
2023/10/28 12:34:01;;;;;;;14.20;2.63;;;;;;;15.44;100.00;99281.69;10467700;28;20136;-84
2023/10/28 12:39:01;;;;;;;13.30;2.65;;;;;;;14.35;100.00;99267.16;10459257;28;20041;-82
2023/10/28 12:44:03;;;;;;;8.98;2.67;;;;;;;13.58;100.00;99251.63;10450270;28;20509;-84
2023/10/28 12:49:03;;;;;;;10.37;3.67;;;;;;;13.34;100.00;99251.38;10462411;28;20095;-84
2023/10/28 12:54:05;;;;;;;15.00;2.78;;;;;;;13.49;100.00;99247.16;10435973;28;20128;-83
2023/10/28 12:59:08;;;;;;;11.35;2.53;;;;;;;13.38;100.00;99249.63;10440734;28;20377;-84
2023/10/28 13:04:12;;;;;;;7.22;2.42;;;;;;;13.06;100.00;99240.56;10458089;28;20103;-83
2023/10/28 13:09:13;;;;;;;10.45;3.92;;;;;;;13.51;100.00;99241.03;10447421;28;20048;-84
2023/10/28 13:14:18;;;;;;;6.93;2.97;;;;;;;14.72;100.00;99229.63;10466049;28;20048;-84
2023/10/28 13:19:19;;;;;;;9.75;2.10;;;;;;;15.96;100.00;99251.03;10424023;28;20051;-82
2023/10/28 13:24:20;;;;;;;7.10;2.28;;;;;;;14.40;100.00;99262.78;10475636;28;20032;-81
2023/10/28 13:29:20;;;;;;;9.60;1.70;;;;;;;14.53;100.00;99237.41;10466114;28;20079;-87
2023/10/28 13:34:21;;;;;;;9.90;2.10;;;;;;;14.28;100.00;99239.03;10476451;28;20131;-84
2023/10/28 13:39:21;;;;;;;11.90;2.65;;;;;;;13.83;100.00;99233.44;10455538;28;20128;-84
2023/10/28 13:44:22;;;;;;;5.05;1.52;;;;;;;14.79;100.00;99249.84;10468729;28;20037;-84
2023/10/28 13:49:24;;;;;;;7.65;1.80;;;;;;;14.72;100.00;99254.22;10440368;28;20135;-85
2023/10/28 13:54:24;;;;;;;10.00;3.33;;;;;;;15.10;100.00;99266.69;10460783;28;20039;-85
2023/10/28 13:59:25;;;;;;;7.22;2.58;;;;;;;15.67;100.00;99259.78;10451441;28;20136;-82
2023/10/28 14:04:26;;;;;;;9.18;2.00;;;;;;;15.66;100.00;99276.47;10458806;28;20044;-84
2023/10/28 14:09:26;;;;;;;3.58;1.40;;;;;;;14.02;100.00;99266.03;10438233;28;20119;-83
2023/10/28 14:14:27;;;;;;;10.50;2.28;;;;;;;12.98;100.00;99255.34;10463956;28;20050;-86
2023/10/28 14:19:27;;;;;;;9.05;5.10;;;;;;;13.13;100.00;99261.63;10441215;28;20203;-85
2023/10/28 14:24:29;;;;;;;7.78;1.83;;;;;;;13.86;100.00;99251.84;10477179;28;20060;-85
2023/10/28 14:29:30;;;;;;;8.48;1.88;;;;;;;13.49;100.00;99258.53;10472611;28;20044;-85
2023/10/28 14:34:31;;;;;;;4.97;1.43;;;;;;;13.00;100.00;99257.97;10462867;28;20037;-85
2023/10/28 14:39:31;;;;;;;5.93;1.67;;;;;;;12.62;100.00;99247.00;10435265;28;20072;-85
2023/10/28 14:44:32;;;;;;;4.38;1.80;;;;;;;12.57;100.00;99232.06;10450554;28;20029;-85
2023/10/28 14:49:32;;;;;;;7.55;1.85;;;;;;;12.41;100.00;99226.63;10451649;28;20089;-84
2023/10/28 14:54:34;;;;;;;8.02;1.65;;;;;;;12.28;100.00;99225.53;10460812;28;20047;-83
2023/10/28 14:59:34;;;;;;;13.55;3.42;;;;;;;12.23;100.00;99214.09;10450583;28;20042;-89
2023/10/28 15:04:35;;;;;;;6.55;1.67;;;;;;;12.17;100.00;99203.53;10451747;28;20037;-82
2023/10/28 15:09:35;;;;;;;7.43;1.73;;;;;;;12.18;100.00;99207.91;10449931;28;20040;-81
2023/10/28 15:14:39;;;;;;;6.28;1.85;;;;;;;12.17;100.00;99214.91;10441361;28;20056;-83
2023/10/28 15:19:40;;;;;;;5.32;1.77;;;;;;;12.04;100.00;99208.59;10441143;28;20037;-80
2023/10/28 15:24:40;;;;;;;7.78;1.58;;;;;;;11.85;100.00;99204.78;10459804;28;20124;-80
2023/10/28 15:29:41;;;;;;;16.52;2.95;;;;;;;11.72;100.00;99208.94;10461570;28;20115;-81
2023/10/28 15:34:46;;;;;;;9.45;3.35;;;;;;;11.69;100.00;99205.41;10469797;28;20048;-81
2023/10/28 15:39:47;;;;;;;7.53;1.70;;;;;;;11.65;100.00;99199.22;10479732;28;20032;-81
2023/10/28 15:44:47;;;;;;;6.32;3.78;;;;;;;11.59;100.00;99189.53;10477691;28;20057;-81
2023/10/28 15:49:49;;;;;;;7.95;2.25;;;;;;;11.64;100.00;99183.47;10439580;28;20076;-81
2023/10/28 15:54:50;;;;;;;6.97;2.38;;;;;;;11.47;100.00;99173.59;10432852;28;20489;-80
2023/10/28 15:59:51;;;;;;;5.20;1.98;;;;;;;11.17;100.00;99174.81;10453107;28;20128;-81
2023/10/28 16:04:53;;;;;;;7.80;2.67;;;;;;;10.91;100.00;99167.38;10448272;28;20059;-81
2023/10/28 16:09:53;;;;;;;6.57;1.90;;;;;;;10.67;100.00;99180.84;10479722;28;20029;-83
2023/10/28 16:14:54;;;;;;;4.07;1.60;;;;;;;10.57;100.00;99177.16;10472643;28;20083;-85
2023/10/28 16:19:55;;;;;;;7.15;2.53;;;;;;;10.53;100.00;99211.97;10457042;28;20068;-85
2023/10/28 16:24:55;;;;;;;3.75;1.33;;;;;;;10.65;100.00;99211.31;10424566;28;20083;-86
2023/10/28 16:29:56;;;;;;;3.38;1.02;;;;;;;10.73;100.00;99186.19;10454088;28;20154;-84
2023/10/28 16:34:56;;;;;;;11.10;2.85;;;;;;;10.63;100.00;99202.56;10451844;28;20187;-83
2023/10/28 16:39:58;;;;;;;5.82;1.38;;;;;;;10.38;100.00;99192.44;10447151;28;20123;-89
2023/10/28 16:44:59;;;;;;;4.23;1.33;;;;;;;10.23;100.00;99226.97;10452078;28;20040;-80
2023/10/28 16:50:00;;;;;;;4.50;1.30;;;;;;;10.19;100.00;99238.19;10472856;28;20040;-85
2023/10/28 16:55:02;;;;;;;3.72;1.48;;;;;;;10.20;100.00;99239.09;10447883;28;20071;-83
2023/10/28 17:00:03;;;;;;;4.03;1.17;;;;;;;10.20;100.00;99232.13;10474868;28;20482;-88
2023/10/28 17:05:06;;;;;;;5.38;1.85;;;;;;;10.13;100.00;99230.22;10453433;28;20040;-81
2023/10/28 17:10:07;;;;;;;2.90;1.17;;;;;;;10.09;100.00;99238.84;10437013;28;20036;-83
2023/10/28 17:15:09;;;;;;;5.43;2.40;;;;;;;10.11;100.00;99240.66;10457475;28;20076;-82
2023/10/28 17:20:10;;;;;;;7.97;3.30;;;;;;;9.87;100.00;99237.44;10449876;28;20032;-82
2023/10/28 17:25:11;;;;;;;4.07;1.42;;;;;;;9.61;100.00;99237.69;10439934;28;20047;-82
2023/10/28 17:30:13;;;;;;;6.30;1.75;;;;;;;9.38;100.00;99249.28;10472205;28;20047;-85
2023/10/28 17:35:14;;;;;;;;;;;;;;;9.30;100.00;99248.22;10437505;28;20064;-83
2023/10/28 17:40:15;;;;;;;9.18;2.20;;;;;;;9.19;100.00;99245.31;10472605;28;19920;-79
2023/10/28 17:45:15;;;;;;;10.18;3.83;;;;;;;9.10;100.00;99258.97;10470214;28;20505;-82
2023/10/28 17:50:16;;;;;;;8.45;1.88;;;;;;;9.17;100.00;99264.38;10461514;28;20036;-83
2023/10/28 17:55:16;;;;;;;5.85;2.72;;;;;;;9.36;100.00;99250.13;10442344;28;20032;-83
2023/10/28 18:00:19;;;;;;;7.78;2.42;;;;;;;9.53;100.00;99261.88;10479129;28;20068;-83
2023/10/28 18:05:20;;;;;;;9.98;3.00;;;;;;;9.65;100.00;99258.69;10471952;28;20098;-83
2023/10/28 18:10:22;;;;;;;3.42;1.95;;;;;;;9.80;100.00;99252.97;10453757;28;20086;-83
2023/10/28 18:15:22;;;;;;;5.28;2.47;;;;;;;9.87;100.00;99240.06;10434063;28;20093;-83
2023/10/28 18:20:25;;;;;;;4.53;2.97;;;;;;;9.83;100.00;99218.19;10461633;28;20131;-82
2023/10/28 18:25:25;;;;;;;5.45;1.90;;;;;;;9.77;100.00;99211.09;10439851;28;20471;-83
2023/10/28 18:30:27;;;;;;;7.30;2.05;;;;;;;9.84;100.00;99196.44;10441670;28;20128;-83
2023/10/28 18:35:28;;;;;;;6.63;2.60;;;;;;;9.89;100.00;99186.09;10451680;28;20434;-82
2023/10/28 18:40:28;;;;;;;4.78;2.10;;;;;;;9.94;100.00;99180.13;10468690;28;20086;-83
2023/10/28 18:45:29;;;;;;;6.25;2.80;;;;;;;10.02;100.00;99163.75;10428911;28;20131;-83
2023/10/28 18:50:30;;;;;;;4.95;2.13;;;;;;;10.07;100.00;99149.94;10469503;28;20061;-83
2023/10/28 18:55:31;;;;;;;4.97;1.90;;;;;;;10.08;100.00;99136.03;10463149;28;20048;-82
2023/10/28 19:00:31;;;;;;;3.58;1.75;;;;;;;10.05;100.00;99137.66;10464797;28;20067;-84
2023/10/28 19:05:33;;;;;;;3.58;1.80;;;;;;;9.92;100.00;99139.16;10472206;28;21128;-84
2023/10/28 19:10:33;;;;;;;6.20;2.72;;;;;;;9.85;100.00;99135.50;10450979;28;20516;-81
2023/10/28 19:15:34;;;;;;;5.95;2.65;;;;;;;9.86;100.00;99147.72;10462157;28;20120;-82
2023/10/28 19:20:34;;;;;;;4.78;2.40;;;;;;;9.78;100.00;99139.72;10465799;28;20097;-81
2023/10/28 19:25:36;;;;;;;4.53;2.53;;;;;;;9.72;100.00;99144.78;10470474;28;20056;-81
2023/10/28 19:30:36;;;;;;;3.65;1.83;;;;;;;9.67;100.00;99144.66;10465918;28;20037;-81
2023/10/28 19:35:36;;;;;;;5.82;2.78;;;;;;;9.61;100.00;99144.53;10428092;28;20124;-80
2023/10/28 19:40:37;;;;;;;4.80;2.10;;;;;;;9.50;100.00;99154.72;10467063;28;20484;-81
2023/10/28 19:45:38;;;;;;;8.70;2.47;;;;;;;9.53;100.00;99157.41;10468940;28;20032;-79
2023/10/28 19:50:38;;;;;;;8.55;3.00;;;;;;;9.62;100.00;99156.75;10448269;28;20128;-80
2023/10/28 19:55:39;;;;;;;3.53;1.85;;;;;;;9.69;100.00;99150.81;10462991;28;20075;-81
2023/10/28 20:00:39;;;;;;;7.97;3.30;;;;;;;9.75;100.00;99157.03;10448098;28;20058;-79
2023/10/28 20:05:40;;;;;;;5.25;2.50;;;;;;;9.75;100.00;99149.19;10468247;28;20066;-80
2023/10/28 20:10:40;;;;;;;4.65;2.30;;;;;;;9.72;100.00;99146.50;10464593;28;20127;-79
2023/10/28 20:15:41;;;;;;;7.50;4.07;;;;;;;9.78;100.00;99141.44;10461704;28;20558;-79
2023/10/28 20:20:43;;;;;;;7.47;4.03;;;;;;;9.77;100.00;99130.09;10447935;28;20488;-78
2023/10/28 20:25:45;;;;;;;6.60;2.65;;;;;;;9.76;100.00;99136.19;10440008;28;20550;-78
2023/10/28 20:30:45;;;;;;;6.25;3.70;;;;;;;9.80;100.00;99135.41;10464703;28;20044;-80
2023/10/28 20:35:46;;;;;;;6.30;4.22;;;;;;;9.81;100.00;99128.44;10471606;28;20120;-79
2023/10/28 20:40:46;;;;;;;16.25;4.35;;;;;;;9.80;100.00;99134.50;10456041;28;20119;-79
2023/10/28 20:45:48;;;;;;;10.98;3.00;;;;;;;9.78;100.00;99142.31;10450941;28;20106;-78
2023/10/28 20:50:49;;;;;;;6.50;2.70;;;;;;;9.82;100.00;99123.25;10463676;28;20064;-78
2023/10/28 20:55:50;;;;;;;3.97;2.05;;;;;;;9.83;100.00;99111.97;10449068;28;20040;-77
2023/10/28 21:00:50;;;;;;;3.92;2.38;;;;;;;9.86;100.00;99091.97;10446436;28;20775;-78
2023/10/28 21:05:53;;;;;;;6.15;2.58;;;;;;;9.89;100.00;99085.06;10459035;28;20059;-77
2023/10/28 21:10:54;;;;;;;6.85;2.75;;;;;;;9.96;100.00;99079.13;10451431;28;20086;-78
2023/10/28 21:15:55;;;;;;;6.47;2.73;;;;;;;9.97;100.00;99046.91;10457370;28;20190;-77
2023/10/28 21:20:55;;;;;;;5.32;2.53;;;;;;;9.93;100.00;99041.59;10455141;28;20094;-77
2023/10/28 21:25:57;;;;;;;5.03;1.90;;;;;;;9.97;100.00;99018.16;10441080;28;20128;-78
2023/10/28 21:31:01;;;;;;;5.82;2.65;;;;;;;9.92;100.00;99006.75;10462141;28;20415;-78
2023/10/28 21:36:03;;;;;;;5.20;2.50;;;;;;;9.96;100.00;99007.69;10465808;28;20179;-78
2023/10/28 21:41:06;;;;;;;8.13;3.08;;;;;;;9.99;100.00;99000.78;10468046;28;20071;-78
2023/10/28 21:46:08;;;;;;;3.90;2.25;;;;;;;10.06;100.00;98985.22;10456431;28;20366;-79
2023/10/28 21:51:08;;;;;;;11.32;2.80;;;;;;;10.05;100.00;98976.50;10451579;28;20109;-80
2023/10/28 21:56:09;;;;;;;6.57;2.72;;;;;;;10.08;100.00;98960.00;10438687;28;20043;-79
2023/10/28 22:01:09;;;;;;;10.40;3.00;;;;;;;10.10;100.00;98960.91;10472791;28;20553;-80
2023/10/28 22:06:10;;;;;;;5.63;3.08;;;;;;;10.07;100.00;98943.44;10453231;28;20120;-79
2023/10/28 22:11:10;;;;;;;7.35;1.95;;;;;;;10.14;100.00;98941.81;10476529;28;20166;-80
2023/10/28 22:16:11;;;;;;;6.15;2.20;;;;;;;10.14;100.00;98929.63;10476782;28;20533;-79
2023/10/28 22:21:11;;;;;;;5.50;2.30;;;;;;;10.18;100.00;98927.94;10477926;28;20079;-79
2023/10/28 22:26:12;;;;;;;7.00;2.15;;;;;;;10.23;100.00;98921.06;10479986;28;20584;-79
2023/10/28 22:31:12;;;;;;;3.83;2.45;;;;;;;10.23;100.00;98931.53;10457850;28;20123;-79
2023/10/28 22:36:13;;;;;;;3.88;1.88;;;;;;;10.28;100.00;98922.03;10477896;28;20039;-79
2023/10/28 22:41:13;;;;;;;3.65;1.67;;;;;;;10.35;100.00;98914.28;10451621;28;20140;-79
2023/10/28 22:46:14;;;;;;;3.28;1.75;;;;;;;10.42;100.00;98904.00;10453469;28;20079;-79
2023/10/28 22:51:15;;;;;;;4.63;1.75;;;;;;;10.53;100.00;98882.38;10461436;28;20127;-79
2023/10/28 22:56:16;;;;;;;10.43;1.90;;;;;;;10.55;100.00;98862.38;10465759;28;20045;-79
2023/10/28 23:01:16;;;;;;;3.30;1.15;;;;;;;10.62;100.00;98848.53;10455641;28;20127;-80
2023/10/28 23:06:17;;;;;;;3.33;1.20;;;;;;;10.66;100.00;98846.81;10469029;28;20139;-79